sensor_id;sensor_type;location;lat;lon;timestamp;temperature;humidity
37786;DHT22;23625;48.784;9.336;2024-02-26T00:01:26;8.10;80.30
37786;DHT22;23625;48.784;9.336;2024-02-26T00:03:52;8.00;81.80
37786;DHT22;23625;48.784;9.336;2024-02-26T00:06:19;7.90;82.90
37786;DHT22;23625;48.784;9.336;2024-02-26T00:08:45;7.80;84.00
37786;DHT22;23625;48.784;9.336;2024-02-26T00:11:10;7.70;85.20
37786;DHT22;23625;48.784;9.336;2024-02-26T00:13:36;7.70;85.90
37786;DHT22;23625;48.784;9.336;2024-02-26T00:16:03;7.60;85.90
37786;DHT22;23625;48.784;9.336;2024-02-26T00:18:29;7.60;86.50
37786;DHT22;23625;48.784;9.336;2024-02-26T00:20:55;7.60;87.40
37786;DHT22;23625;48.784;9.336;2024-02-26T00:23:20;7.50;88.10
37786;DHT22;23625;48.784;9.336;2024-02-26T00:25:46;7.50;89.10
37786;DHT22;23625;48.784;9.336;2024-02-26T00:28:13;7.50;90.20
37786;DHT22;23625;48.784;9.336;2024-02-26T00:30:39;7.40;90.30
37786;DHT22;23625;48.784;9.336;2024-02-26T00:33:04;7.40;90.40
37786;DHT22;23625;48.784;9.336;2024-02-26T00:35:30;7.30;90.90
37786;DHT22;23625;48.784;9.336;2024-02-26T00:37:55;7.30;91.40
37786;DHT22;23625;48.784;9.336;2024-02-26T00:40:21;7.20;92.70
37786;DHT22;23625;48.784;9.336;2024-02-26T00:42:47;7.10;93.60
37786;DHT22;23625;48.784;9.336;2024-02-26T00:45:13;7.10;94.30
37786;DHT22;23625;48.784;9.336;2024-02-26T00:47:39;7.10;95.10
37786;DHT22;23625;48.784;9.336;2024-02-26T00:50:07;7.00;97.70
37786;DHT22;23625;48.784;9.336;2024-02-26T00:52:34;6.90;98.40
37786;DHT22;23625;48.784;9.336;2024-02-26T00:54:59;6.90;98.30
37786;DHT22;23625;48.784;9.336;2024-02-26T00:57:25;6.90;98.90
37786;DHT22;23625;48.784;9.336;2024-02-26T00:59:51;6.90;99.90
37786;DHT22;23625;48.784;9.336;2024-02-26T01:02:16;6.70;99.90
37786;DHT22;23625;48.784;9.336;2024-02-26T01:04:42;6.70;99.90
37786;DHT22;23625;48.784;9.336;2024-02-26T01:07:08;6.70;99.90
37786;DHT22;23625;48.784;9.336;2024-02-26T01:09:34;6.60;99.90
37786;DHT22;23625;48.784;9.336;2024-02-26T01:11:59;6.60;99.90
37786;DHT22;23625;48.784;9.336;2024-02-26T01:14:25;6.70;99.90
37786;DHT22;23625;48.784;9.336;2024-02-26T01:16:51;6.60;99.90
37786;DHT22;23625;48.784;9.336;2024-02-26T01:19:17;6.60;99.90
37786;DHT22;23625;48.784;9.336;2024-02-26T01:21:42;6.50;99.90
37786;DHT22;23625;48.784;9.336;2024-02-26T01:24:08;6.50;99.90
37786;DHT22;23625;48.784;9.336;2024-02-26T01:26:33;6.40;99.90
37786;DHT22;23625;48.784;9.336;2024-02-26T01:28:59;6.30;99.90
37786;DHT22;23625;48.784;9.336;2024-02-26T01:31:24;6.30;99.90
37786;DHT22;23625;48.784;9.336;2024-02-26T01:33:50;6.30;99.90
37786;DHT22;23625;48.784;9.336;2024-02-26T01:36:16;6.30;99.90
37786;DHT22;23625;48.784;9.336;2024-02-26T01:38:41;6.30;99.90
37786;DHT22;23625;48.784;9.336;2024-02-26T01:41:07;6.30;99.90
37786;DHT22;23625;48.784;9.336;2024-02-26T01:43:32;6.30;99.90
37786;DHT22;23625;48.784;9.336;2024-02-26T01:45:58;6.50;99.90
37786;DHT22;23625;48.784;9.336;2024-02-26T01:48:24;6.40;99.90
37786;DHT22;23625;48.784;9.336;2024-02-26T01:50:51;6.40;99.90
37786;DHT22;23625;48.784;9.336;2024-02-26T01:53:17;6.30;99.90
37786;DHT22;23625;48.784;9.336;2024-02-26T01:55:44;6.20;99.90
37786;DHT22;23625;48.784;9.336;2024-02-26T01:58:10;6.30;99.90
37786;DHT22;23625;48.784;9.336;2024-02-26T02:00:36;6.20;99.90
37786;DHT22;23625;48.784;9.336;2024-02-26T02:03:02;6.20;99.90
37786;DHT22;23625;48.784;9.336;2024-02-26T02:05:29;6.10;99.90
37786;DHT22;23625;48.784;9.336;2024-02-26T02:07:55;6.10;99.90
37786;DHT22;23625;48.784;9.336;2024-02-26T02:10:21;6.20;99.90
37786;DHT22;23625;48.784;9.336;2024-02-26T02:12:51;6.20;99.90
37786;DHT22;23625;48.784;9.336;2024-02-26T02:15:16;6.20;99.90
37786;DHT22;23625;48.784;9.336;2024-02-26T02:17:42;6.20;99.90
37786;DHT22;23625;48.784;9.336;2024-02-26T02:20:09;6.20;99.90
37786;DHT22;23625;48.784;9.336;2024-02-26T02:22:35;6.20;99.90
37786;DHT22;23625;48.784;9.336;2024-02-26T02:25:00;6.20;99.90
37786;DHT22;23625;48.784;9.336;2024-02-26T02:27:27;6.30;99.90
37786;DHT22;23625;48.784;9.336;2024-02-26T02:29:54;6.30;99.90
37786;DHT22;23625;48.784;9.336;2024-02-26T02:32:20;6.30;99.90
37786;DHT22;23625;48.784;9.336;2024-02-26T02:34:46;6.20;99.90
37786;DHT22;23625;48.784;9.336;2024-02-26T02:37:12;6.20;99.90
37786;DHT22;23625;48.784;9.336;2024-02-26T02:39:38;6.20;99.90
37786;DHT22;23625;48.784;9.336;2024-02-26T02:42:04;6.30;99.90
37786;DHT22;23625;48.784;9.336;2024-02-26T02:44:29;6.50;99.90
37786;DHT22;23625;48.784;9.336;2024-02-26T02:46:55;6.80;98.30
37786;DHT22;23625;48.784;9.336;2024-02-26T02:49:20;6.70;98.70
37786;DHT22;23625;48.784;9.336;2024-02-26T02:51:47;6.70;99.30
37786;DHT22;23625;48.784;9.336;2024-02-26T02:54:13;6.70;98.80
37786;DHT22;23625;48.784;9.336;2024-02-26T02:56:38;6.90;95.20
37786;DHT22;23625;48.784;9.336;2024-02-26T02:59:04;7.00;93.70
37786;DHT22;23625;48.784;9.336;2024-02-26T03:01:29;7.00;93.70
37786;DHT22;23625;48.784;9.336;2024-02-26T03:03:55;6.90;98.10
37786;DHT22;23625;48.784;9.336;2024-02-26T03:06:20;6.90;99.90
37786;DHT22;23625;48.784;9.336;2024-02-26T03:08:46;6.80;99.90
37786;DHT22;23625;48.784;9.336;2024-02-26T03:11:15;6.90;99.90
37786;DHT22;23625;48.784;9.336;2024-02-26T03:13:41;6.90;98.70
37786;DHT22;23625;48.784;9.336;2024-02-26T03:16:07;6.80;99.90
37786;DHT22;23625;48.784;9.336;2024-02-26T03:18:32;6.80;99.90
37786;DHT22;23625;48.784;9.336;2024-02-26T03:20:58;6.80;99.90
37786;DHT22;23625;48.784;9.336;2024-02-26T03:23:23;6.90;99.90
37786;DHT22;23625;48.784;9.336;2024-02-26T03:25:49;6.80;99.90
37786;DHT22;23625;48.784;9.336;2024-02-26T03:28:15;6.80;99.90
37786;DHT22;23625;48.784;9.336;2024-02-26T03:30:40;6.90;99.90
37786;DHT22;23625;48.784;9.336;2024-02-26T03:33:06;6.80;99.30
37786;DHT22;23625;48.784;9.336;2024-02-26T03:35:32;6.80;99.90
37786;DHT22;23625;48.784;9.336;2024-02-26T03:37:57;6.70;99.90
37786;DHT22;23625;48.784;9.336;2024-02-26T03:40:23;6.70;99.90
37786;DHT22;23625;48.784;9.336;2024-02-26T03:42:49;6.60;99.90
37786;DHT22;23625;48.784;9.336;2024-02-26T03:45:15;6.60;99.90
37786;DHT22;23625;48.784;9.336;2024-02-26T03:47:41;6.60;99.90
37786;DHT22;23625;48.784;9.336;2024-02-26T03:50:07;6.70;99.90
37786;DHT22;23625;48.784;9.336;2024-02-26T03:52:33;6.80;99.90
37786;DHT22;23625;48.784;9.336;2024-02-26T03:54:59;6.70;99.90
37786;DHT22;23625;48.784;9.336;2024-02-26T03:57:25;6.70;99.90
37786;DHT22;23625;48.784;9.336;2024-02-26T03:59:50;6.80;99.90
37786;DHT22;23625;48.784;9.336;2024-02-26T04:02:16;6.70;99.90
37786;DHT22;23625;48.784;9.336;2024-02-26T04:04:41;6.60;99.90
37786;DHT22;23625;48.784;9.336;2024-02-26T04:07:07;6.50;99.90
37786;DHT22;23625;48.784;9.336;2024-02-26T04:09:33;6.50;99.90
37786;DHT22;23625;48.784;9.336;2024-02-26T04:11:58;6.50;99.90
37786;DHT22;23625;48.784;9.336;2024-02-26T04:14:24;6.40;99.90
37786;DHT22;23625;48.784;9.336;2024-02-26T04:16:50;6.50;99.90
37786;DHT22;23625;48.784;9.336;2024-02-26T04:19:17;6.50;99.90
37786;DHT22;23625;48.784;9.336;2024-02-26T04:21:43;6.70;99.90
37786;DHT22;23625;48.784;9.336;2024-02-26T04:24:09;6.70;99.90
37786;DHT22;23625;48.784;9.336;2024-02-26T04:26:34;6.60;99.90
37786;DHT22;23625;48.784;9.336;2024-02-26T04:29:00;6.50;99.90
37786;DHT22;23625;48.784;9.336;2024-02-26T04:31:26;6.50;99.90
37786;DHT22;23625;48.784;9.336;2024-02-26T04:33:52;6.40;99.90
37786;DHT22;23625;48.784;9.336;2024-02-26T04:36:17;6.40;99.90
37786;DHT22;23625;48.784;9.336;2024-02-26T04:38:46;6.40;99.90
37786;DHT22;23625;48.784;9.336;2024-02-26T04:41:12;6.40;99.90
37786;DHT22;23625;48.784;9.336;2024-02-26T04:43:38;6.40;99.90
37786;DHT22;23625;48.784;9.336;2024-02-26T04:46:09;6.30;99.90
37786;DHT22;23625;48.784;9.336;2024-02-26T04:48:35;6.20;99.90
37786;DHT22;23625;48.784;9.336;2024-02-26T04:51:02;6.30;99.90
37786;DHT22;23625;48.784;9.336;2024-02-26T04:53:28;6.30;99.90
37786;DHT22;23625;48.784;9.336;2024-02-26T04:55:54;6.30;99.90
37786;DHT22;23625;48.784;9.336;2024-02-26T04:58:19;6.30;99.90
37786;DHT22;23625;48.784;9.336;2024-02-26T05:00:45;6.30;99.90
37786;DHT22;23625;48.784;9.336;2024-02-26T05:03:10;6.30;99.90
37786;DHT22;23625;48.784;9.336;2024-02-26T05:05:39;6.30;99.90
37786;DHT22;23625;48.784;9.336;2024-02-26T05:08:06;6.40;99.90
37786;DHT22;23625;48.784;9.336;2024-02-26T05:10:33;6.40;99.90
37786;DHT22;23625;48.784;9.336;2024-02-26T05:12:58;6.40;99.90
37786;DHT22;23625;48.784;9.336;2024-02-26T05:15:24;6.40;99.90
37786;DHT22;23625;48.784;9.336;2024-02-26T05:17:49;6.50;99.90
37786;DHT22;23625;48.784;9.336;2024-02-26T05:20:15;6.50;99.90
37786;DHT22;23625;48.784;9.336;2024-02-26T05:22:41;6.50;99.90
37786;DHT22;23625;48.784;9.336;2024-02-26T05:25:07;6.50;99.90
37786;DHT22;23625;48.784;9.336;2024-02-26T05:27:33;6.50;99.90
37786;DHT22;23625;48.784;9.336;2024-02-26T05:29:58;6.50;99.90
37786;DHT22;23625;48.784;9.336;2024-02-26T05:32:24;6.50;99.90
37786;DHT22;23625;48.784;9.336;2024-02-26T05:34:50;6.60;99.90
37786;DHT22;23625;48.784;9.336;2024-02-26T05:37:15;6.70;98.50
37786;DHT22;23625;48.784;9.336;2024-02-26T05:39:41;6.70;97.70
37786;DHT22;23625;48.784;9.336;2024-02-26T05:42:06;6.80;97.30
37786;DHT22;23625;48.784;9.336;2024-02-26T05:44:34;6.80;98.00
37786;DHT22;23625;48.784;9.336;2024-02-26T05:46:59;6.80;99.60
37786;DHT22;23625;48.784;9.336;2024-02-26T05:49:25;6.80;99.90
37786;DHT22;23625;48.784;9.336;2024-02-26T05:51:51;6.80;99.90
37786;DHT22;23625;48.784;9.336;2024-02-26T05:54:16;6.80;99.70
37786;DHT22;23625;48.784;9.336;2024-02-26T05:56:42;6.80;99.30
37786;DHT22;23625;48.784;9.336;2024-02-26T05:59:08;6.90;99.90
37786;DHT22;23625;48.784;9.336;2024-02-26T06:01:33;6.90;99.80
37786;DHT22;23625;48.784;9.336;2024-02-26T06:03:59;6.90;99.80
37786;DHT22;23625;48.784;9.336;2024-02-26T06:06:25;7.00;99.90
37786;DHT22;23625;48.784;9.336;2024-02-26T06:08:50;6.90;99.90
37786;DHT22;23625;48.784;9.336;2024-02-26T06:11:16;6.90;99.90
37786;DHT22;23625;48.784;9.336;2024-02-26T06:13:42;6.80;99.90
37786;DHT22;23625;48.784;9.336;2024-02-26T06:16:10;6.80;99.90
37786;DHT22;23625;48.784;9.336;2024-02-26T06:18:35;6.80;99.90
37786;DHT22;23625;48.784;9.336;2024-02-26T06:21:02;6.80;99.90
37786;DHT22;23625;48.784;9.336;2024-02-26T06:23:28;6.80;99.90
37786;DHT22;23625;48.784;9.336;2024-02-26T06:25:53;6.80;99.90
37786;DHT22;23625;48.784;9.336;2024-02-26T06:28:19;6.80;99.90
37786;DHT22;23625;48.784;9.336;2024-02-26T06:30:45;6.70;99.90
37786;DHT22;23625;48.784;9.336;2024-02-26T06:33:11;6.60;99.90
37786;DHT22;23625;48.784;9.336;2024-02-26T06:35:37;6.60;99.90
37786;DHT22;23625;48.784;9.336;2024-02-26T06:38:03;6.50;99.90
37786;DHT22;23625;48.784;9.336;2024-02-26T06:40:29;6.60;99.90
37786;DHT22;23625;48.784;9.336;2024-02-26T06:42:55;6.50;99.90
37786;DHT22;23625;48.784;9.336;2024-02-26T06:45:21;6.50;99.90
37786;DHT22;23625;48.784;9.336;2024-02-26T06:47:47;6.60;99.90
37786;DHT22;23625;48.784;9.336;2024-02-26T06:50:12;6.60;99.90
37786;DHT22;23625;48.784;9.336;2024-02-26T06:52:42;6.40;99.90
37786;DHT22;23625;48.784;9.336;2024-02-26T06:55:08;6.40;99.90
37786;DHT22;23625;48.784;9.336;2024-02-26T06:57:34;6.30;99.90
37786;DHT22;23625;48.784;9.336;2024-02-26T07:00:00;6.30;99.90
37786;DHT22;23625;48.784;9.336;2024-02-26T07:02:25;6.30;99.90
37786;DHT22;23625;48.784;9.336;2024-02-26T07:04:51;6.30;99.90
37786;DHT22;23625;48.784;9.336;2024-02-26T07:07:16;6.40;99.90
37786;DHT22;23625;48.784;9.336;2024-02-26T07:09:44;6.40;99.90
37786;DHT22;23625;48.784;9.336;2024-02-26T07:12:09;6.40;99.90
37786;DHT22;23625;48.784;9.336;2024-02-26T07:14:35;6.40;99.90
37786;DHT22;23625;48.784;9.336;2024-02-26T07:17:03;6.50;99.90
37786;DHT22;23625;48.784;9.336;2024-02-26T07:19:28;6.50;99.90
37786;DHT22;23625;48.784;9.336;2024-02-26T07:21:54;6.50;99.90
37786;DHT22;23625;48.784;9.336;2024-02-26T07:24:21;6.50;99.90
37786;DHT22;23625;48.784;9.336;2024-02-26T07:26:46;6.50;99.90
37786;DHT22;23625;48.784;9.336;2024-02-26T07:29:12;6.50;99.90
37786;DHT22;23625;48.784;9.336;2024-02-26T07:31:37;6.50;99.90
37786;DHT22;23625;48.784;9.336;2024-02-26T07:34:03;6.50;99.90
37786;DHT22;23625;48.784;9.336;2024-02-26T07:36:29;6.50;99.90
37786;DHT22;23625;48.784;9.336;2024-02-26T07:38:54;6.60;99.90
37786;DHT22;23625;48.784;9.336;2024-02-26T07:41:20;6.60;99.90
37786;DHT22;23625;48.784;9.336;2024-02-26T07:43:46;6.70;99.90
37786;DHT22;23625;48.784;9.336;2024-02-26T07:46:14;6.70;99.90
37786;DHT22;23625;48.784;9.336;2024-02-26T07:48:40;6.80;99.90
37786;DHT22;23625;48.784;9.336;2024-02-26T07:51:07;6.80;99.90
37786;DHT22;23625;48.784;9.336;2024-02-26T07:53:32;6.90;99.90
37786;DHT22;23625;48.784;9.336;2024-02-26T07:55:58;6.90;99.90
37786;DHT22;23625;48.784;9.336;2024-02-26T07:58:24;7.00;99.90
37786;DHT22;23625;48.784;9.336;2024-02-26T08:00:49;7.00;99.90
37786;DHT22;23625;48.784;9.336;2024-02-26T08:03:15;7.10;99.90
37786;DHT22;23625;48.784;9.336;2024-02-26T08:05:42;7.10;99.90
37786;DHT22;23625;48.784;9.336;2024-02-26T08:08:08;7.20;99.90
37786;DHT22;23625;48.784;9.336;2024-02-26T08:10:34;7.20;99.90
37786;DHT22;23625;48.784;9.336;2024-02-26T08:13:00;7.20;99.90
37786;DHT22;23625;48.784;9.336;2024-02-26T08:15:34;7.30;99.90
37786;DHT22;23625;48.784;9.336;2024-02-26T08:18:03;7.40;99.90
37786;DHT22;23625;48.784;9.336;2024-02-26T08:20:29;7.40;99.90
37786;DHT22;23625;48.784;9.336;2024-02-26T08:22:56;7.40;99.90
37786;DHT22;23625;48.784;9.336;2024-02-26T08:25:22;7.40;99.90
37786;DHT22;23625;48.784;9.336;2024-02-26T08:27:47;7.50;99.90
37786;DHT22;23625;48.784;9.336;2024-02-26T08:30:14;7.50;99.90
37786;DHT22;23625;48.784;9.336;2024-02-26T08:32:42;7.60;99.90
37786;DHT22;23625;48.784;9.336;2024-02-26T08:35:08;7.60;99.90
37786;DHT22;23625;48.784;9.336;2024-02-26T08:37:34;7.70;99.90
37786;DHT22;23625;48.784;9.336;2024-02-26T08:39:59;7.70;99.90
37786;DHT22;23625;48.784;9.336;2024-02-26T08:42:25;7.70;99.90
37786;DHT22;23625;48.784;9.336;2024-02-26T08:44:50;7.80;99.90
37786;DHT22;23625;48.784;9.336;2024-02-26T08:47:16;7.90;99.90
37786;DHT22;23625;48.784;9.336;2024-02-26T08:49:45;7.90;99.90
37786;DHT22;23625;48.784;9.336;2024-02-26T08:52:10;7.90;99.90
37786;DHT22;23625;48.784;9.336;2024-02-26T08:54:36;8.00;99.90
37786;DHT22;23625;48.784;9.336;2024-02-26T08:57:02;8.10;99.90
37786;DHT22;23625;48.784;9.336;2024-02-26T08:59:28;8.10;99.90
37786;DHT22;23625;48.784;9.336;2024-02-26T09:01:54;8.20;99.90
37786;DHT22;23625;48.784;9.336;2024-02-26T09:04:19;8.30;99.90
37786;DHT22;23625;48.784;9.336;2024-02-26T09:06:45;8.40;99.90
37786;DHT22;23625;48.784;9.336;2024-02-26T09:09:10;8.40;99.90
37786;DHT22;23625;48.784;9.336;2024-02-26T09:11:36;8.40;99.90
37786;DHT22;23625;48.784;9.336;2024-02-26T09:14:02;8.50;99.90
37786;DHT22;23625;48.784;9.336;2024-02-26T09:16:29;8.50;99.90
37786;DHT22;23625;48.784;9.336;2024-02-26T09:18:55;8.60;99.90
37786;DHT22;23625;48.784;9.336;2024-02-26T09:21:20;8.60;99.30
37786;DHT22;23625;48.784;9.336;2024-02-26T09:23:50;8.60;99.90
37786;DHT22;23625;48.784;9.336;2024-02-26T09:26:16;8.60;99.90
37786;DHT22;23625;48.784;9.336;2024-02-26T09:28:42;8.60;99.90
37786;DHT22;23625;48.784;9.336;2024-02-26T09:31:07;8.70;99.90
37786;DHT22;23625;48.784;9.336;2024-02-26T09:33:33;8.80;99.90
37786;DHT22;23625;48.784;9.336;2024-02-26T09:35:58;8.80;99.90
37786;DHT22;23625;48.784;9.336;2024-02-26T09:38:26;8.80;99.90
37786;DHT22;23625;48.784;9.336;2024-02-26T09:40:52;8.90;99.90
37786;DHT22;23625;48.784;9.336;2024-02-26T09:43:21;9.00;99.90
37786;DHT22;23625;48.784;9.336;2024-02-26T09:45:50;9.10;99.90
37786;DHT22;23625;48.784;9.336;2024-02-26T09:48:17;9.10;97.20
37786;DHT22;23625;48.784;9.336;2024-02-26T09:50:43;9.20;97.30
37786;DHT22;23625;48.784;9.336;2024-02-26T09:53:11;9.20;99.20
37786;DHT22;23625;48.784;9.336;2024-02-26T09:55:37;9.20;98.50
37786;DHT22;23625;48.784;9.336;2024-02-26T09:58:05;9.30;97.90
37786;DHT22;23625;48.784;9.336;2024-02-26T10:00:31;9.40;96.80
37786;DHT22;23625;48.784;9.336;2024-02-26T10:03:04;9.30;97.90
37786;DHT22;23625;48.784;9.336;2024-02-26T10:05:31;9.40;98.70
37786;DHT22;23625;48.784;9.336;2024-02-26T10:07:57;9.50;99.20
37786;DHT22;23625;48.784;9.336;2024-02-26T10:10:24;9.50;97.30
37786;DHT22;23625;48.784;9.336;2024-02-26T10:12:50;9.60;95.00
37786;DHT22;23625;48.784;9.336;2024-02-26T10:15:15;9.70;94.80
37786;DHT22;23625;48.784;9.336;2024-02-26T10:17:41;9.90;97.90
37786;DHT22;23625;48.784;9.336;2024-02-26T10:20:14;10.10;95.80
37786;DHT22;23625;48.784;9.336;2024-02-26T10:22:41;10.30;93.10
37786;DHT22;23625;48.784;9.336;2024-02-26T10:25:07;10.60;93.50
37786;DHT22;23625;48.784;9.336;2024-02-26T10:27:34;10.80;91.60
37786;DHT22;23625;48.784;9.336;2024-02-26T10:30:03;10.80;88.60
37786;DHT22;23625;48.784;9.336;2024-02-26T10:32:30;10.90;83.40
37786;DHT22;23625;48.784;9.336;2024-02-26T10:34:56;10.90;83.10
37786;DHT22;23625;48.784;9.336;2024-02-26T10:37:22;11.00;83.50
37786;DHT22;23625;48.784;9.336;2024-02-26T10:39:48;11.10;85.40
37786;DHT22;23625;48.784;9.336;2024-02-26T10:42:14;11.30;84.40
37786;DHT22;23625;48.784;9.336;2024-02-26T10:44:40;11.50;83.60
37786;DHT22;23625;48.784;9.336;2024-02-26T10:47:07;11.70;81.30
37786;DHT22;23625;48.784;9.336;2024-02-26T10:49:35;11.80;78.30
37786;DHT22;23625;48.784;9.336;2024-02-26T10:52:01;12.00;76.40
37786;DHT22;23625;48.784;9.336;2024-02-26T10:54:29;12.10;75.30
37786;DHT22;23625;48.784;9.336;2024-02-26T10:56:56;12.10;73.20
37786;DHT22;23625;48.784;9.336;2024-02-26T10:59:26;12.10;74.70
37786;DHT22;23625;48.784;9.336;2024-02-26T11:01:52;12.10;73.80
37786;DHT22;23625;48.784;9.336;2024-02-26T11:04:18;12.00;73.90
37786;DHT22;23625;48.784;9.336;2024-02-26T11:06:45;12.20;75.20
37786;DHT22;23625;48.784;9.336;2024-02-26T11:09:12;12.30;75.20
37786;DHT22;23625;48.784;9.336;2024-02-26T11:11:38;12.40;74.80
37786;DHT22;23625;48.784;9.336;2024-02-26T11:14:06;12.50;74.00
37786;DHT22;23625;48.784;9.336;2024-02-26T11:16:35;12.60;72.60
37786;DHT22;23625;48.784;9.336;2024-02-26T11:19:02;12.60;70.50
37786;DHT22;23625;48.784;9.336;2024-02-26T11:21:28;12.60;70.10
37786;DHT22;23625;48.784;9.336;2024-02-26T11:24:13;12.60;70.90
37786;DHT22;23625;48.784;9.336;2024-02-26T11:26:47;12.50;71.10
37786;DHT22;23625;48.784;9.336;2024-02-26T11:29:16;12.60;70.40
37786;DHT22;23625;48.784;9.336;2024-02-26T11:31:42;12.50;70.90
37786;DHT22;23625;48.784;9.336;2024-02-26T11:34:09;12.40;70.20
37786;DHT22;23625;48.784;9.336;2024-02-26T11:36:36;12.50;70.40
37786;DHT22;23625;48.784;9.336;2024-02-26T11:39:04;12.40;70.90
37786;DHT22;23625;48.784;9.336;2024-02-26T11:41:30;12.50;69.40
37786;DHT22;23625;48.784;9.336;2024-02-26T11:44:01;12.50;69.00
37786;DHT22;23625;48.784;9.336;2024-02-26T11:46:28;12.50;69.90
37786;DHT22;23625;48.784;9.336;2024-02-26T11:49:00;12.50;70.50
37786;DHT22;23625;48.784;9.336;2024-02-26T11:51:35;12.60;70.00
37786;DHT22;23625;48.784;9.336;2024-02-26T11:54:01;12.70;70.60
37786;DHT22;23625;48.784;9.336;2024-02-26T11:56:26;12.70;70.00
37786;DHT22;23625;48.784;9.336;2024-02-26T11:59:11;12.80;69.50
37786;DHT22;23625;48.784;9.336;2024-02-26T12:04:17;13.00;70.80
37786;DHT22;23625;48.784;9.336;2024-02-26T12:07:05;13.00;70.90
37786;DHT22;23625;48.784;9.336;2024-02-26T12:09:41;13.10;69.00
37786;DHT22;23625;48.784;9.336;2024-02-26T12:12:10;13.20;68.00
37786;DHT22;23625;48.784;9.336;2024-02-26T12:14:40;13.30;67.80
37786;DHT22;23625;48.784;9.336;2024-02-26T12:17:07;13.40;66.30
37786;DHT22;23625;48.784;9.336;2024-02-26T12:19:40;13.50;67.50
37786;DHT22;23625;48.784;9.336;2024-02-26T12:22:07;13.60;67.70
37786;DHT22;23625;48.784;9.336;2024-02-26T12:24:33;13.70;67.10
37786;DHT22;23625;48.784;9.336;2024-02-26T12:26:59;13.90;65.50
37786;DHT22;23625;48.784;9.336;2024-02-26T12:29:24;14.00;64.80
37786;DHT22;23625;48.784;9.336;2024-02-26T12:31:50;14.00;63.90
37786;DHT22;23625;48.784;9.336;2024-02-26T12:34:16;14.00;64.40
37786;DHT22;23625;48.784;9.336;2024-02-26T12:36:42;14.00;64.00
37786;DHT22;23625;48.784;9.336;2024-02-26T12:39:08;14.00;63.80
37786;DHT22;23625;48.784;9.336;2024-02-26T12:41:35;14.00;63.70
37786;DHT22;23625;48.784;9.336;2024-02-26T12:44:01;13.90;63.60
37786;DHT22;23625;48.784;9.336;2024-02-26T12:46:26;13.80;64.10
37786;DHT22;23625;48.784;9.336;2024-02-26T12:48:55;13.70;64.20
37786;DHT22;23625;48.784;9.336;2024-02-26T12:51:23;13.60;65.90
37786;DHT22;23625;48.784;9.336;2024-02-26T12:53:50;13.80;66.60
37786;DHT22;23625;48.784;9.336;2024-02-26T12:56:17;14.00;66.60
37786;DHT22;23625;48.784;9.336;2024-02-26T12:58:44;14.30;65.80
37786;DHT22;23625;48.784;9.336;2024-02-26T13:01:15;14.50;64.80
37786;DHT22;23625;48.784;9.336;2024-02-26T13:03:41;14.60;62.90
37786;DHT22;23625;48.784;9.336;2024-02-26T13:06:07;14.70;62.40
37786;DHT22;23625;48.784;9.336;2024-02-26T13:08:33;14.80;61.70
37786;DHT22;23625;48.784;9.336;2024-02-26T13:10:59;14.90;60.10
37786;DHT22;23625;48.784;9.336;2024-02-26T13:13:25;14.70;61.00
37786;DHT22;23625;48.784;9.336;2024-02-26T13:16:04;14.70;62.10
37786;DHT22;23625;48.784;9.336;2024-02-26T13:18:30;14.70;62.40
37786;DHT22;23625;48.784;9.336;2024-02-26T13:21:15;14.60;62.20
37786;DHT22;23625;48.784;9.336;2024-02-26T13:23:42;14.60;61.10
37786;DHT22;23625;48.784;9.336;2024-02-26T13:26:08;14.60;61.40
37786;DHT22;23625;48.784;9.336;2024-02-26T13:28:37;14.60;61.20
37786;DHT22;23625;48.784;9.336;2024-02-26T13:31:03;14.70;61.40
37786;DHT22;23625;48.784;9.336;2024-02-26T13:33:31;14.60;60.70
37786;DHT22;23625;48.784;9.336;2024-02-26T13:35:58;14.60;60.90
37786;DHT22;23625;48.784;9.336;2024-02-26T13:38:24;14.50;61.10
37786;DHT22;23625;48.784;9.336;2024-02-26T13:40:50;14.50;60.90
37786;DHT22;23625;48.784;9.336;2024-02-26T13:43:16;14.50;61.50
37786;DHT22;23625;48.784;9.336;2024-02-26T13:45:42;14.50;62.00
37786;DHT22;23625;48.784;9.336;2024-02-26T13:48:09;14.50;61.00
37786;DHT22;23625;48.784;9.336;2024-02-26T13:50:37;14.40;61.30
37786;DHT22;23625;48.784;9.336;2024-02-26T13:53:02;14.40;61.10
37786;DHT22;23625;48.784;9.336;2024-02-26T13:55:30;14.50;61.10
37786;DHT22;23625;48.784;9.336;2024-02-26T13:57:57;14.60;61.40
37786;DHT22;23625;48.784;9.336;2024-02-26T14:00:23;14.60;61.00
37786;DHT22;23625;48.784;9.336;2024-02-26T14:02:50;14.60;60.90
37786;DHT22;23625;48.784;9.336;2024-02-26T14:05:16;14.70;60.30
37786;DHT22;23625;48.784;9.336;2024-02-26T14:07:41;14.60;59.70
37786;DHT22;23625;48.784;9.336;2024-02-26T14:10:08;14.70;59.50
37786;DHT22;23625;48.784;9.336;2024-02-26T14:12:35;14.80;59.50
37786;DHT22;23625;48.784;9.336;2024-02-26T14:15:01;14.90;59.20
37786;DHT22;23625;48.784;9.336;2024-02-26T14:17:30;15.00;58.90
37786;DHT22;23625;48.784;9.336;2024-02-26T14:19:55;15.10;58.70
37786;DHT22;23625;48.784;9.336;2024-02-26T14:22:21;15.30;58.90
37786;DHT22;23625;48.784;9.336;2024-02-26T14:24:46;15.30;58.20
37786;DHT22;23625;48.784;9.336;2024-02-26T14:27:13;15.30;58.30
37786;DHT22;23625;48.784;9.336;2024-02-26T14:29:43;15.20;59.30
37786;DHT22;23625;48.784;9.336;2024-02-26T14:32:09;15.10;59.40
37786;DHT22;23625;48.784;9.336;2024-02-26T14:34:35;14.90;59.40
37786;DHT22;23625;48.784;9.336;2024-02-26T14:37:01;14.80;59.50
37786;DHT22;23625;48.784;9.336;2024-02-26T14:39:27;14.80;59.30
37786;DHT22;23625;48.784;9.336;2024-02-26T14:41:53;15.00;59.40
37786;DHT22;23625;48.784;9.336;2024-02-26T14:44:18;15.10;59.10
37786;DHT22;23625;48.784;9.336;2024-02-26T14:46:44;15.00;59.20
37786;DHT22;23625;48.784;9.336;2024-02-26T14:49:09;14.90;59.50
37786;DHT22;23625;48.784;9.336;2024-02-26T14:51:36;14.90;59.00
37786;DHT22;23625;48.784;9.336;2024-02-26T14:54:02;14.70;59.50
37786;DHT22;23625;48.784;9.336;2024-02-26T14:56:28;14.60;59.80
37786;DHT22;23625;48.784;9.336;2024-02-26T14:58:53;14.50;60.60
37786;DHT22;23625;48.784;9.336;2024-02-26T15:01:19;14.50;60.80
37786;DHT22;23625;48.784;9.336;2024-02-26T15:03:44;14.50;61.00
37786;DHT22;23625;48.784;9.336;2024-02-26T15:06:10;14.40;61.10
37786;DHT22;23625;48.784;9.336;2024-02-26T15:08:36;14.40;61.70
37786;DHT22;23625;48.784;9.336;2024-02-26T15:11:02;14.30;61.50
37786;DHT22;23625;48.784;9.336;2024-02-26T15:13:28;14.30;61.70
37786;DHT22;23625;48.784;9.336;2024-02-26T15:15:54;14.30;62.10
37786;DHT22;23625;48.784;9.336;2024-02-26T15:18:19;14.10;63.00
37786;DHT22;23625;48.784;9.336;2024-02-26T15:20:45;14.00;63.20
37786;DHT22;23625;48.784;9.336;2024-02-26T15:23:11;13.90;64.10
37786;DHT22;23625;48.784;9.336;2024-02-26T15:25:37;13.90;63.80
37786;DHT22;23625;48.784;9.336;2024-02-26T15:28:04;13.90;64.50
37786;DHT22;23625;48.784;9.336;2024-02-26T15:30:29;13.80;64.10
37786;DHT22;23625;48.784;9.336;2024-02-26T15:32:55;13.80;64.00
37786;DHT22;23625;48.784;9.336;2024-02-26T15:35:22;13.70;64.00
37786;DHT22;23625;48.784;9.336;2024-02-26T15:37:47;13.60;64.10